Time;durP1;ratioP1;P1;durP2;ratioP2;P2;SDS_P1;SDS_P2;PMS_P1;PMS_P2;Temp;Humidity;BMP_temperature;BMP_pressure;BME280_temperature;BME280_humidity;BME280_pressure;Samples;Min_cycle;Max_cycle;Signal;HPM_P1;HPM_P2
2023/03/12 00:00:22;;;;;;;28.73;4.68;;;;;;;8.25;100.00;99881.66;4962425;28;20034;-87
2023/03/12 00:02:48;;;;;;;33.97;5.65;;;;;;;8.26;100.00;99878.00;4993493;28;20473;-87
2023/03/12 00:05:14;;;;;;;28.10;3.78;;;;;;;8.11;100.00;99880.63;4978392;28;20045;-88
2023/03/12 00:07:41;;;;;;;35.65;4.80;;;;;;;7.93;100.00;99880.13;4979306;28;20045;-87
2023/03/12 00:10:11;;;;;;;14.05;3.30;;;;;;;7.88;100.00;99891.34;4995264;28;20026;-88
2023/03/12 00:12:36;;;;;;;21.95;4.97;;;;;;;7.88;100.00;99885.19;4977823;28;20030;-89
2023/03/12 00:15:03;;;;;;;47.35;5.93;;;;;;;7.89;100.00;99879.66;4977929;28;20034;-90
2023/03/12 00:17:29;;;;;;;27.08;3.72;;;;;;;7.77;100.00;99864.19;4994502;28;20026;-88
2023/03/12 00:19:55;;;;;;;28.38;4.88;;;;;;;8.08;100.00;99910.44;4994373;28;20436;-88
2023/03/12 00:22:21;;;;;;;52.63;7.30;;;;;;;8.13;100.00;99899.22;4994059;28;20030;-87
2023/03/12 00:24:52;;;;;;;42.30;6.47;;;;;;;8.31;100.00;99893.53;4994108;28;20026;-88
2023/03/12 00:27:22;;;;;;;48.10;6.20;;;;;;;8.55;100.00;99919.28;4978199;28;20496;-87
2023/03/12 00:29:51;;;;;;;30.38;4.88;;;;;;;8.50;100.00;99903.72;4994476;28;20066;-89
2023/03/12 00:32:16;;;;;;;24.02;4.50;;;;;;;8.64;100.00;99917.31;4974877;28;20030;-88
2023/03/12 00:34:43;;;;;;;39.03;5.03;;;;;;;8.78;100.00;99925.34;4962697;28;20073;-87
2023/03/12 00:37:09;;;;;;;37.95;6.03;;;;;;;8.66;100.00;99910.78;4961920;28;20070;-89
2023/03/12 00:39:35;;;;;;;33.20;4.90;;;;;;;8.84;100.00;99933.69;4961725;28;20397;-88
2023/03/12 00:42:00;;;;;;;32.08;5.05;;;;;;;8.86;100.00;99927.13;4993808;28;20496;-90
2023/03/12 00:44:26;;;;;;;48.28;6.55;;;;;;;8.92;100.00;99923.72;4977560;28;20077;-88
2023/03/12 00:46:53;;;;;;;37.42;4.57;;;;;;;8.79;100.00;99902.91;4993653;28;20030;-87
2023/03/12 00:49:25;;;;;;;25.65;3.85;;;;;;;8.90;100.00;99909.66;4962449;28;20078;-90
2023/03/12 00:51:51;;;;;;;15.85;3.63;;;;;;;8.93;100.00;99930.72;4977573;28;20034;-88
2023/03/12 00:54:18;;;;;;;26.00;4.28;;;;;;;9.00;100.00;99931.66;4977671;28;20034;-88
2023/03/12 00:56:48;;;;;;;26.33;4.97;;;;;;;9.00;100.00;99931.66;4977931;28;20045;-88
2023/03/12 00:59:14;;;;;;;46.60;6.50;;;;;;;8.90;100.00;99914.19;4977359;28;20049;-88
2023/03/12 01:01:41;;;;;;;26.80;4.32;;;;;;;9.00;100.00;99936.19;4993796;28;20023;-89
2023/03/12 01:04:08;;;;;;;27.35;4.40;;;;;;;8.85;100.00;99903.19;4977686;28;20034;-87
2023/03/12 01:06:37;;;;;;;33.30;5.07;;;;;;;8.92;100.00;99921.03;4992957;28;20054;-88
2023/03/12 01:09:10;;;;;;;53.42;6.43;;;;;;;8.92;100.00;99923.72;4977316;28;20031;-89
2023/03/12 01:11:37;;;;;;;40.33;5.63;;;;;;;8.82;100.00;99914.28;4962029;28;20034;-87
2023/03/12 01:14:07;;;;;;;29.65;3.55;;;;;;;8.91;100.00;99942.66;4992741;28;20034;-89
2023/03/12 01:16:33;;;;;;;46.42;6.07;;;;;;;8.58;100.00;99903.66;4961532;28;20041;-87
2023/03/12 01:19:00;;;;;;;40.22;6.28;;;;;;;8.80;100.00;99927.88;4977066;28;20033;-88
2023/03/12 01:21:33;;;;;;;50.25;8.25;;;;;;;8.90;100.00;99949.03;4977060;28;20061;-89
2023/03/12 01:24:02;;;;;;;35.40;5.93;;;;;;;8.85;100.00;99941.56;4977890;28;20711;-86
2023/03/12 01:26:29;;;;;;;41.33;5.75;;;;;;;8.75;100.00;99952.53;4976839;28;20465;-89
2023/03/12 01:29:00;;;;;;;33.60;5.80;;;;;;;8.76;100.00;99956.91;4961165;28;20031;-89
2023/03/12 01:31:25;;;;;;;39.63;6.03;;;;;;;8.74;100.00;99958.09;4993602;28;20461;-89
2023/03/12 01:33:56;;;;;;;29.13;4.57;;;;;;;8.75;100.00;99963.25;4976908;28;20042;-86
2023/03/12 01:36:29;;;;;;;45.53;5.80;;;;;;;8.58;100.00;99933.13;4995266;28;20113;-88
2023/03/12 01:38:58;;;;;;;38.05;6.07;;;;;;;8.56;100.00;99937.81;4978502;28;20066;-90
2023/03/12 01:41:27;;;;;;;35.55;5.32;;;;;;;8.59;100.00;99945.50;4976814;28;20026;-85
2023/03/12 01:43:53;;;;;;;43.40;6.43;;;;;;;8.59;100.00;99945.50;4993119;28;20504;-91
2023/03/12 01:46:41;;;;;;;45.25;7.50;;;;;;;8.56;100.00;99937.81;4976453;28;20035;-88
2023/03/12 01:49:10;;;;;;;36.78;5.45;;;;;;;8.51;100.00;99926.81;4977335;28;20456;-88
2023/03/12 01:51:47;;;;;;;44.65;5.50;;;;;;;8.50;100.00;99949.28;4994201;28;20044;-91
2023/03/12 01:54:31;;;;;;;44.80;5.95;;;;;;;8.28;100.00;99918.81;4960406;28;20201;-90
2023/03/12 01:56:57;;;;;;;38.88;5.97;;;;;;;8.28;100.00;99937.56;4961115;28;20129;-88
2023/03/12 01:59:38;;;;;;;36.20;5.20;;;;;;;8.16;100.00;99941.69;4994153;28;20165;-88
2023/03/12 02:02:07;;;;;;;30.38;5.22;;;;;;;7.90;100.00;99907.25;4976521;28;20034;-89
2023/03/12 02:04:37;;;;;;;27.77;3.85;;;;;;;7.96;100.00;99943.19;4960780;28;20392;-88
2023/03/12 02:07:07;;;;;;;30.58;5.43;;;;;;;7.86;100.00;99951.47;4960788;28;20030;-87
2023/03/12 02:09:35;;;;;;;20.95;4.32;;;;;;;7.72;100.00;99937.81;4993174;28;20096;-87
2023/03/12 02:12:02;;;;;;;31.38;4.88;;;;;;;7.85;100.00;99955.97;4964470;28;20053;-87
2023/03/12 02:14:28;;;;;;;40.58;5.03;;;;;;;7.91;100.00;99967.78;4967142;28;20461;-88
2023/03/12 02:16:57;;;;;;;43.22;5.63;;;;;;;7.95;100.00;99971.78;4982638;28;20124;-87
2023/03/12 02:20:06;;;;;;;33.20;5.93;;;;;;;7.84;100.00;99943.59;4967325;28;20030;-87
2023/03/12 02:22:35;;;;;;;32.35;4.85;;;;;;;7.72;100.00;99953.88;4983769;28;20038;-86
2023/03/12 02:25:20;;;;;;;43.28;6.80;;;;;;;7.55;100.00;99957.66;4983050;28;20022;-87
2023/03/12 02:27:50;;;;;;;35.25;5.60;;;;;;;7.29;100.00;99947.25;4999062;28;20030;-87
2023/03/12 02:30:22;;;;;;;31.08;7.03;;;;;;;7.26;100.00;99959.13;4967059;28;20065;-87
2023/03/12 02:32:50;;;;;;;23.85;4.30;;;;;;;7.26;100.00;99947.63;4966166;28;20516;-86
2023/03/12 02:35:17;;;;;;;13.00;2.67;;;;;;;7.35;100.00;99959.09;4999229;28;20022;-88
2023/03/12 02:37:51;;;;;;;33.53;6.10;;;;;;;7.40;100.00;99941.50;4982780;28;20120;-89
2023/03/12 02:40:25;;;;;;;32.58;4.78;;;;;;;7.42;100.00;99952.06;4982189;28;20093;-86
2023/03/12 02:42:56;;;;;;;48.55;6.45;;;;;;;7.30;100.00;99942.75;4983265;28;20076;-86
2023/03/12 02:45:26;;;;;;;23.88;4.30;;;;;;;7.19;100.00;99936.78;4966242;28;20037;-87
2023/03/12 02:47:53;;;;;;;23.77;3.58;;;;;;;7.10;100.00;99945.00;4999451;28;20034;-86
2023/03/12 02:50:21;;;;;;;40.28;6.63;;;;;;;7.06;100.00;99931.16;4982866;28;20048;-87
2023/03/12 02:52:49;;;;;;;43.25;5.68;;;;;;;7.09;100.00;99927.28;4966298;28;20026;-88
2023/03/12 02:55:15;;;;;;;23.00;4.45;;;;;;;6.99;100.00;99912.31;4998900;28;20034;-90
2023/03/12 02:57:43;;;;;;;32.55;5.00;;;;;;;7.17;100.00;99935.28;4999880;28;20034;-86
2023/03/12 03:00:12;;;;;;;39.90;6.35;;;;;;;7.27;100.00;99935.91;4983139;28;20080;-87
2023/03/12 03:02:45;;;;;;;53.72;6.65;;;;;;;7.41;100.00;99942.34;4999081;28;20484;-90
2023/03/12 03:05:13;;;;;;;27.17;4.70;;;;;;;7.49;100.00;99937.81;4979728;28;20057;-87
2023/03/12 03:07:38;;;;;;;44.78;6.07;;;;;;;7.47;100.00;99923.75;4982705;28;20042;-87
2023/03/12 03:10:05;;;;;;;44.53;6.20;;;;;;;7.54;100.00;99931.06;4982531;28;20134;-87
2023/03/12 03:12:32;;;;;;;36.88;5.97;;;;;;;7.53;100.00;99930.25;4999114;28;20046;-86
2023/03/12 03:15:06;;;;;;;26.52;3.88;;;;;;;7.51;100.00;99936.78;4983220;28;20037;-86
2023/03/12 03:17:31;;;;;;;22.52;3.85;;;;;;;7.56;100.00;99937.09;4967094;28;20053;-89
2023/03/12 03:19:57;;;;;;;45.78;7.10;;;;;;;7.56;100.00;99926.38;4982333;28;20473;-89
2023/03/12 03:22:26;;;;;;;47.95;5.53;;;;;;;7.41;100.00;99916.44;4998340;28;20089;-87
2023/03/12 03:24:53;;;;;;;33.38;5.40;;;;;;;7.36;100.00;99934.88;4979267;28;20472;-86
2023/03/12 03:27:23;;;;;;;43.78;5.38;;;;;;;7.26;100.00;99924.38;4965920;28;20377;-87
2023/03/12 03:29:51;;;;;;;21.80;3.58;;;;;;;7.19;100.00;99930.59;5005653;28;20030;-86
2023/03/12 03:32:19;;;;;;;51.30;5.53;;;;;;;7.10;100.00;99928.97;4990546;28;20129;-85
2023/03/12 03:34:45;;;;;;;37.40;5.07;;;;;;;7.03;100.00;99913.63;4988831;28;20038;-86
2023/03/12 03:37:13;;;;;;;34.30;6.53;;;;;;;6.99;100.00;99914.16;4999434;28;20117;-88
2023/03/12 03:39:38;;;;;;;55.03;6.50;;;;;;;6.88;100.00;99906.50;4980205;28;20026;-88
2023/03/12 03:42:05;;;;;;;56.20;6.07;;;;;;;6.94;100.00;99912.00;4995217;28;20051;-86
2023/03/12 03:44:31;;;;;;;45.10;5.60;;;;;;;6.86;100.00;99908.53;4979490;28;20073;-86
2023/03/12 03:46:59;;;;;;;42.28;4.72;;;;;;;6.96;100.00;99910.00;4979291;28;20169;-88
2023/03/12 03:49:25;;;;;;;36.08;5.90;;;;;;;6.88;100.00;99890.47;4979441;28;20042;-89
2023/03/12 03:51:53;;;;;;;32.63;5.00;;;;;;;6.85;100.00;99878.28;4978704;28;20103;-88
2023/03/12 03:54:18;;;;;;;34.90;4.90;;;;;;;7.00;100.00;99897.09;4978691;28;20045;-87
2023/03/12 03:56:46;;;;;;;34.58;4.47;;;;;;;6.99;100.00;99900.78;4978959;28;20031;-90
2023/03/12 03:59:12;;;;;;;30.65;3.75;;;;;;;6.98;100.00;99907.94;4978817;28;20038;-86
2023/03/12 04:01:41;;;;;;;31.17;4.55;;;;;;;7.01;100.00;99912.13;4994882;28;20042;-87
2023/03/12 04:04:07;;;;;;;23.45;3.80;;;;;;;6.96;100.00;99914.47;4985375;28;20034;-87
2023/03/12 04:06:32;;;;;;;35.55;6.38;;;;;;;7.00;100.00;99907.78;4966623;28;20437;-88
2023/03/12 04:09:02;;;;;;;22.58;3.17;;;;;;;6.88;100.00;99882.44;4995874;28;20109;-86
2023/03/12 04:11:29;;;;;;;42.05;6.05;;;;;;;7.08;100.00;99896.22;4962535;28;20038;-88
2023/03/12 04:13:54;;;;;;;27.30;4.75;;;;;;;7.12;100.00;99898.38;4978697;28;20485;-88
2023/03/12 04:16:20;;;;;;;36.58;5.68;;;;;;;7.02;100.00;99865.69;4994441;28;20037;-88
2023/03/12 04:18:47;;;;;;;20.42;3.88;;;;;;;7.32;100.00;99882.72;4994414;28;20045;-86
2023/03/12 04:21:13;;;;;;;26.02;4.35;;;;;;;7.49;100.00;99889.66;4978226;28;20030;-87
2023/03/12 04:23:39;;;;;;;38.10;5.78;;;;;;;7.51;100.00;99881.44;4961867;28;20058;-87
2023/03/12 04:26:06;;;;;;;29.85;4.80;;;;;;;7.51;100.00;99883.28;4978460;28;20073;-88
2023/03/12 04:28:32;;;;;;;25.20;4.57;;;;;;;7.34;100.00;99864.66;4978544;28;20049;-88
2023/03/12 04:31:07;;;;;;;34.20;4.00;;;;;;;7.54;100.00;99873.09;4978044;28;20469;-88
2023/03/12 04:33:36;;;;;;;37.03;3.15;;;;;;;7.54;100.00;99859.72;4962487;28;20061;-87
2023/03/12 04:36:04;;;;;;;25.25;4.20;;;;;;;7.63;100.00;99871.16;4994021;28;20392;-91
2023/03/12 04:38:30;;;;;;;16.73;3.95;;;;;;;7.62;100.00;99865.00;4977820;28;20034;-89
2023/03/12 04:41:07;;;;;;;4.28;2.60;;;;;;;7.65;100.00;99858.47;4994538;28;20037;-88
2023/03/12 04:43:34;;;;;;;39.38;4.25;;;;;;;7.77;100.00;99856.16;4994458;28;20448;-86
2023/03/12 04:46:00;;;;;;;47.72;5.30;;;;;;;7.78;100.00;99847.13;4977771;28;20041;-86
2023/03/12 04:48:28;;;;;;;35.78;4.22;;;;;;;7.72;100.00;99830.78;4994265;28;20385;-89
2023/03/12 04:50:54;;;;;;;21.95;4.00;;;;;;;7.87;100.00;99852.25;4962168;28;20037;-88
2023/03/12 04:53:20;;;;;;;28.40;5.32;;;;;;;8.04;100.00;99873.50;4977750;28;20042;-86
2023/03/12 04:55:49;;;;;;;70.25;6.95;;;;;;;7.93;100.00;99856.84;4994017;28;20034;-89
2023/03/12 04:58:16;;;;;;;29.48;3.85;;;;;;;7.98;100.00;99859.00;4961725;28;20181;-90
2023/03/12 05:00:46;;;;;;;20.17;5.03;;;;;;;7.95;100.00;99858.53;4962452;28;20088;-87
2023/03/12 05:03:12;;;;;;;11.10;2.53;;;;;;;8.00;100.00;99867.69;4977698;28;20481;-89
2023/03/12 05:05:41;;;;;;;30.55;5.65;;;;;;;8.07;100.00;99884.69;4977511;28;20034;-87
2023/03/12 05:08:09;;;;;;;15.23;3.83;;;;;;;8.00;100.00;99875.72;4977716;28;20039;-90
2023/03/12 05:10:38;;;;;;;32.33;4.57;;;;;;;7.83;100.00;99872.34;4993962;28;20110;-87
2023/03/12 05:13:03;;;;;;;24.75;4.82;;;;;;;7.83;100.00;99885.75;4993916;28;20489;-86
2023/03/12 05:15:29;;;;;;;37.78;4.30;;;;;;;7.74;100.00;99884.13;4977333;28;20050;-86
2023/03/12 05:17:58;;;;;;;34.88;4.90;;;;;;;7.66;100.00;99887.69;4993902;28;20401;-88
2023/03/12 05:20:25;;;;;;;48.05;6.15;;;;;;;7.57;100.00;99891.44;4961377;28;20026;-87
2023/03/12 05:22:51;;;;;;;36.90;5.00;;;;;;;7.38;100.00;99874.03;4993484;28;20073;-86
2023/03/12 05:25:17;;;;;;;24.70;3.45;;;;;;;7.29;100.00;99875.06;4993561;28;20050;-85
2023/03/12 05:27:43;;;;;;;25.30;5.03;;;;;;;7.33;100.00;99892.44;4976794;28;20038;-86
2023/03/12 05:30:13;;;;;;;57.03;5.00;;;;;;;7.38;100.00;99890.06;4960664;28;20035;-90
2023/03/12 05:32:41;;;;;;;36.30;4.60;;;;;;;7.32;100.00;99869.34;4977581;28;20033;-89
2023/03/12 05:35:08;;;;;;;30.25;5.25;;;;;;;7.26;100.00;99875.41;4977083;28;20053;-90
2023/03/12 05:37:34;;;;;;;30.48;3.72;;;;;;;7.27;100.00;99872.56;4961824;28;20480;-87
2023/03/12 05:39:59;;;;;;;26.30;4.82;;;;;;;7.37;100.00;99887.56;4979387;28;20026;-85
2023/03/12 05:42:25;;;;;;;31.75;3.35;;;;;;;7.30;100.00;99891.94;4997301;28;20027;-89
2023/03/12 05:44:51;;;;;;;49.30;5.68;;;;;;;7.27;100.00;99898.47;4995699;28;20042;-86
2023/03/12 05:47:21;;;;;;;30.27;3.80;;;;;;;7.27;100.00;99893.13;4978097;28;20042;-87
2023/03/12 05:50:10;;;;;;;19.60;4.65;;;;;;;7.07;100.00;99873.19;4964678;28;20030;-86
2023/03/12 05:52:36;;;;;;;15.48;3.17;;;;;;;7.16;100.00;99882.81;4979398;28;20453;-87
2023/03/12 05:55:02;;;;;;;22.27;4.13;;;;;;;7.03;100.00;99862.00;4993170;28;20093;-89
2023/03/12 05:57:28;;;;;;;29.50;3.83;;;;;;;7.02;100.00;99865.69;4993258;28;20037;-88
2023/03/12 05:59:53;;;;;;;28.73;3.90;;;;;;;7.02;100.00;99871.88;4976906;28;20034;-86
2023/03/12 06:02:20;;;;;;;25.83;3.72;;;;;;;6.95;100.00;99864.72;4977183;28;20100;-86
2023/03/12 06:04:45;;;;;;;32.05;4.15;;;;;;;6.75;100.00;99848.28;4993170;28;20161;-87
2023/03/12 06:07:11;;;;;;;27.25;4.60;;;;;;;6.76;100.00;99856.09;4976910;28;20424;-85
2023/03/12 06:09:37;;;;;;;23.85;3.22;;;;;;;6.78;100.00;99853.28;4960809;28;20038;-86
2023/03/12 06:12:02;;;;;;;21.90;5.80;;;;;;;6.84;100.00;99863.25;4993940;28;20053;-90
2023/03/12 06:14:28;;;;;;;25.58;4.95;;;;;;;6.73;100.00;99850.28;4992281;28;20053;-86
2023/03/12 06:17:02;;;;;;;24.10;5.20;;;;;;;6.75;100.00;99869.66;4992993;28;20038;-89
2023/03/12 06:19:33;;;;;;;41.25;9.10;;;;;;;6.59;100.00;99844.66;4995433;28;20389;-86
2023/03/12 06:21:59;;;;;;;41.28;10.10;;;;;;;6.53;100.00;99848.00;4971750;28;20041;-91
2023/03/12 06:24:25;;;;;;;25.77;3.47;;;;;;;6.40;100.00;99850.38;4983461;28;20038;-91
2023/03/12 06:26:53;;;;;;;25.23;3.88;;;;;;;6.24;100.00;99829.88;4976186;28;20473;-89
2023/03/12 06:29:19;;;;;;;30.65;3.83;;;;;;;6.37;100.00;99858.72;4993761;28;20026;-90
2023/03/12 06:31:45;;;;;;;23.35;3.63;;;;;;;6.25;100.00;99849.44;4976496;28;20045;-89
2023/03/12 06:34:16;;;;;;;29.13;4.57;;;;;;;6.18;100.00;99840.44;4977472;28;20030;-85
2023/03/12 06:36:42;;;;;;;23.92;5.30;;;;;;;6.11;100.00;99833.13;4976526;28;20038;-88
2023/03/12 06:39:13;;;;;;;32.97;3.65;;;;;;;6.15;100.00;99829.09;4992872;28;20038;-89
2023/03/12 06:41:41;;;;;;;27.65;5.07;;;;;;;6.24;100.00;99831.72;4976738;28;20491;-86
2023/03/12 06:44:07;;;;;;;20.20;3.88;;;;;;;6.48;100.00;99836.16;4993131;28;20037;-87
2023/03/12 06:46:33;;;;;;;30.73;4.20;;;;;;;6.59;100.00;99828.63;4992912;28;20047;-89
2023/03/12 06:49:03;;;;;;;19.35;3.60;;;;;;;6.72;100.00;99824.56;4961312;28;20495;-87
2023/03/12 06:51:30;;;;;;;7.22;1.83;;;;;;;6.81;100.00;99812.84;4990933;28;20041;-85
2023/03/12 06:54:01;;;;;;;13.02;3.15;;;;;;;6.98;100.00;99818.94;4976722;28;20050;-86
2023/03/12 06:56:31;;;;;;;35.10;4.10;;;;;;;7.07;100.00;99822.41;4976763;28;20038;-86
2023/03/12 06:59:00;;;;;;;23.92;6.38;;;;;;;7.17;100.00;99812.28;4979480;28;20076;-85
2023/03/12 07:01:26;;;;;;;12.52;2.97;;;;;;;7.19;100.00;99797.75;4993187;28;20038;-87
2023/03/12 07:03:51;;;;;;;28.88;3.90;;;;;;;7.17;100.00;99781.06;4996111;28;20125;-90
2023/03/12 07:06:22;;;;;;;24.90;4.60;;;;;;;7.13;100.00;99771.72;4995557;28;20035;-88
2023/03/12 07:08:49;;;;;;;14.68;3.13;;;;;;;7.18;100.00;99772.03;4996204;28;20027;-91
2023/03/12 07:11:18;;;;;;;8.38;1.83;;;;;;;7.16;100.00;99757.19;4995721;28;20440;-89
2023/03/12 07:13:51;;;;;;;30.75;4.05;;;;;;;7.29;100.00;99764.59;4980580;28;20038;-87
2023/03/12 07:16:17;;;;;;;32.13;4.90;;;;;;;7.32;100.00;99746.34;4977059;28;20040;-86
2023/03/12 07:18:43;;;;;;;8.07;2.65;;;;;;;7.29;100.00;99735.19;4995434;28;20042;-90
2023/03/12 07:21:09;;;;;;;32.63;5.75;;;;;;;7.45;100.00;99745.75;4995568;28;20085;-88
2023/03/12 07:23:46;;;;;;;12.82;2.63;;;;;;;7.52;100.00;99735.16;4963262;28;20050;-86
2023/03/12 07:26:20;;;;;;;27.40;3.90;;;;;;;7.61;100.00;99734.06;4962343;28;20386;-86
2023/03/12 07:28:45;;;;;;;13.50;1.90;;;;;;;7.60;100.00;99719.88;4960047;28;20057;-86
2023/03/12 07:31:11;;;;;;;15.35;4.07;;;;;;;7.64;100.00;99718.47;4995917;28;20491;-89
2023/03/12 07:33:38;;;;;;;20.58;3.55;;;;;;;7.63;100.00;99714.16;4963105;28;20445;-91
2023/03/12 07:36:06;;;;;;;15.65;2.70;;;;;;;7.64;100.00;99726.50;4963409;28;20096;-86
2023/03/12 07:38:33;;;;;;;34.28;4.97;;;;;;;7.63;100.00;99716.00;4979302;28;20030;-88
2023/03/12 07:41:03;;;;;;;4.75;1.52;;;;;;;7.68;100.00;99721.63;4979755;28;20035;-89
2023/03/12 07:43:29;;;;;;;20.25;5.03;;;;;;;7.78;100.00;99724.03;4996138;28;20485;-88
2023/03/12 07:45:55;;;;;;;31.88;4.82;;;;;;;7.89;100.00;99734.31;4978841;28;20085;-87
2023/03/12 07:48:22;;;;;;;45.88;4.75;;;;;;;7.93;100.00;99720.34;4978921;28;20042;-89
2023/03/12 07:50:48;;;;;;;31.40;4.95;;;;;;;7.96;100.00;99711.13;4979021;28;20030;-87
2023/03/12 07:53:14;;;;;;;16.90;3.67;;;;;;;8.16;100.00;99722.13;4978965;28;20054;-86
2023/03/12 07:55:44;;;;;;;36.78;4.60;;;;;;;8.20;100.00;99711.84;4996068;28;20023;-88
2023/03/12 07:58:12;;;;;;;30.52;4.00;;;;;;;8.29;100.00;99706.22;4979004;28;20038;-87
2023/03/12 08:00:42;;;;;;;33.75;4.47;;;;;;;8.54;100.00;99708.59;4997258;28;20034;-91
2023/03/12 08:03:10;;;;;;;26.58;3.88;;;;;;;9.00;100.00;99705.59;4980644;28;20120;-91
2023/03/12 08:05:36;;;;;;;26.65;3.13;;;;;;;9.49;100.00;99720.88;4979238;28;20038;-86
2023/03/12 08:08:02;;;;;;;6.57;2.13;;;;;;;10.02;100.00;99702.44;4994721;28;20193;-93
2023/03/12 08:10:28;;;;;;;5.18;1.90;;;;;;;10.32;100.00;99697.69;4978447;28;20425;-86
2023/03/12 08:12:55;;;;;;;29.35;3.10;;;;;;;10.84;100.00;99698.03;4995381;28;20053;-88
2023/03/12 08:15:21;;;;;;;27.00;5.10;;;;;;;11.00;100.00;99660.00;4978359;28;20034;-89
2023/03/12 08:17:47;;;;;;;15.13;2.60;;;;;;;10.91;100.00;99677.38;4962346;28;20037;-89
2023/03/12 08:20:13;;;;;;;21.67;3.70;;;;;;;11.43;100.00;99654.25;4994660;28;20041;-86
2023/03/12 08:22:39;;;;;;;8.90;2.83;;;;;;;11.78;100.00;99672.00;4994513;28;20038;-86
2023/03/12 08:25:05;;;;;;;28.10;4.10;;;;;;;11.86;100.00;99666.41;4994390;28;20433;-88
2023/03/12 08:27:32;;;;;;;27.88;3.97;;;;;;;11.80;100.00;99659.97;4962106;28;20031;-87
2023/03/12 08:29:59;;;;;;;28.17;3.70;;;;;;;11.68;100.00;99661.66;4962298;28;20034;-90
2023/03/12 08:32:25;;;;;;;27.52;5.38;;;;;;;11.49;100.00;99639.09;4994891;28;20113;-87
2023/03/12 08:34:51;;;;;;;19.48;3.28;;;;;;;11.66;100.00;99624.16;4995758;28;20437;-90
2023/03/12 08:37:19;;;;;;;20.83;2.95;;;;;;;11.99;100.00;99639.44;4994656;28;20042;-86
2023/03/12 08:39:47;;;;;;;6.63;2.55;;;;;;;11.80;100.00;99646.50;4998566;28;20037;-89
2023/03/12 08:42:13;;;;;;;10.80;2.70;;;;;;;11.41;100.00;99655.47;4984939;28;20085;-88
2023/03/12 08:44:42;;;;;;;25.63;3.97;;;;;;;10.93;100.00;99640.38;5011588;28;20034;-85
2023/03/12 08:47:09;;;;;;;27.25;4.32;;;;;;;10.77;100.00;99654.22;4999836;28;20069;-91
2023/03/12 08:49:44;;;;;;;14.25;2.40;;;;;;;10.39;100.00;99643.97;4976211;28;20057;-88
2023/03/12 08:52:17;;;;;;;11.43;3.60;;;;;;;10.11;100.00;99642.19;4977465;28;20049;-90
2023/03/12 08:54:43;;;;;;;20.13;4.00;;;;;;;9.97;100.00;99626.19;4979112;28;20042;-87
2023/03/12 08:57:09;;;;;;;15.77;2.90;;;;;;;9.90;100.00;99621.63;4962242;28;20046;-91
2023/03/12 08:59:35;;;;;;;12.85;2.78;;;;;;;9.96;100.00;99620.00;4978109;28;20053;-90
2023/03/12 09:02:00;;;;;;;22.75;3.72;;;;;;;9.97;100.00;99610.09;5003417;28;20053;-86
2023/03/12 09:04:32;;;;;;;17.17;3.63;;;;;;;10.02;100.00;99621.88;5010878;28;20052;-88
2023/03/12 09:07:18;;;;;;;16.67;4.03;;;;;;;9.85;100.00;99602.59;4996236;28;20054;-87
2023/03/12 09:09:46;;;;;;;27.58;4.25;;;;;;;9.67;100.00;99564.72;5001416;28;20039;-88
2023/03/12 09:12:15;;;;;;;7.05;1.63;;;;;;;9.86;100.00;99590.81;4996438;28;20081;-87
2023/03/12 09:15:04;;;;;;;21.20;3.08;;;;;;;9.90;100.00;99597.47;4994589;28;20061;-87
2023/03/12 09:17:32;;;;;;;20.95;3.90;;;;;;;9.93;100.00;99579.31;4993854;28;20042;-85
2023/03/12 09:19:58;;;;;;;8.73;2.75;;;;;;;10.09;100.00;99582.47;4978569;28;20043;-86
2023/03/12 09:22:27;;;;;;;18.98;4.65;;;;;;;10.25;100.00;99591.19;4997509;28;20374;-88
2023/03/12 09:24:53;;;;;;;29.52;5.25;;;;;;;10.28;100.00;99585.44;4978085;28;20027;-85
2023/03/12 09:27:19;;;;;;;9.15;2.78;;;;;;;10.38;100.00;99585.88;4993483;28;20037;-88
2023/03/12 09:29:45;;;;;;;21.55;4.28;;;;;;;10.45;100.00;99584.03;4993122;28;20030;-91
2023/03/12 09:32:15;;;;;;;29.98;4.43;;;;;;;10.73;100.00;99581.16;4977265;28;20034;-84
2023/03/12 09:34:41;;;;;;;10.00;2.05;;;;;;;10.89;100.00;99585.31;4994090;28;20031;-82
2023/03/12 09:37:07;;;;;;;13.27;2.63;;;;;;;10.93;100.00;99572.31;4976937;28;20030;-81
2023/03/12 09:39:35;;;;;;;22.48;3.55;;;;;;;10.98;100.00;99562.56;4961496;28;20129;-82
2023/03/12 09:42:03;;;;;;;20.73;3.47;;;;;;;11.16;100.00;99577.25;4961246;28;20022;-80
2023/03/12 09:44:35;;;;;;;13.98;2.72;;;;;;;11.27;100.00;99559.63;4976957;28;20471;-82
2023/03/12 09:47:07;;;;;;;15.98;3.75;;;;;;;11.50;100.00;99549.22;4993105;28;20033;-80
2023/03/12 09:49:48;;;;;;;22.15;3.80;;;;;;;11.58;100.00;99561.63;4993135;28;20037;-81
2023/03/12 09:52:43;;;;;;;18.45;3.35;;;;;;;11.52;100.00;99557.09;4945260;28;20038;-80
2023/03/12 09:55:15;;;;;;;32.28;4.88;;;;;;;11.40;100.00;99556.91;4960940;28;20129;-81
2023/03/12 09:57:42;;;;;;;20.92;3.55;;;;;;;11.28;100.00;99551.34;4976761;28;20046;-81
2023/03/12 10:00:16;;;;;;;11.45;1.85;;;;;;;11.05;100.00;99542.91;4992695;28;20049;-80
2023/03/12 10:03:09;;;;;;;25.30;4.22;;;;;;;10.93;100.00;99567.75;4960803;28;20498;-80
2023/03/12 10:05:35;;;;;;;32.33;4.32;;;;;;;10.77;100.00;99581.59;4992936;28;20026;-80
2023/03/12 10:08:27;;;;;;;24.05;3.65;;;;;;;10.74;100.00;99584.69;4994131;28;20370;-80
2023/03/12 10:11:04;;;;;;;21.45;4.18;;;;;;;10.64;100.00;99586.94;4956441;28;20045;-80
2023/03/12 10:13:38;;;;;;;24.13;3.28;;;;;;;10.66;100.00;99587.56;4976833;28;20034;-80
2023/03/12 10:16:13;;;;;;;28.75;4.10;;;;;;;10.65;100.00;99561.75;4993665;28;20374;-80
2023/03/12 10:19:03;;;;;;;24.83;3.97;;;;;;;10.98;100.00;99573.34;4960856;28;20066;-80
2023/03/12 10:21:51;;;;;;;28.70;5.40;;;;;;;11.11;100.00;99559.03;4976591;28;20046;-80
2023/03/12 10:24:30;;;;;;;11.90;2.67;;;;;;;11.50;100.00;99567.25;4966286;28;20142;-80
2023/03/12 10:26:57;;;;;;;13.32;3.92;;;;;;;11.99;100.00;99544.34;4992468;28;20038;-81
2023/03/12 10:29:29;;;;;;;20.77;4.05;;;;;;;12.16;100.00;99555.41;4975916;28;20031;-79
2023/03/12 10:31:59;;;;;;;17.70;3.33;;;;;;;12.21;100.00;99558.31;4960794;28;20462;-80
2023/03/12 10:34:32;;;;;;;15.73;2.85;;;;;;;12.02;100.00;99546.59;4964690;28;20042;-80
2023/03/12 10:36:59;;;;;;;43.13;7.23;;;;;;;11.77;100.00;99544.56;4980397;28;20038;-80
2023/03/12 10:39:25;;;;;;;29.52;4.85;;;;;;;11.66;100.00;99542.56;4964687;28;20268;-80
2023/03/12 10:41:52;;;;;;;9.60;3.05;;;;;;;11.58;100.00;99546.31;4997630;28;20488;-80
2023/03/12 10:44:20;;;;;;;26.67;4.18;;;;;;;11.57;100.00;99531.19;4996188;28;20084;-80
2023/03/12 10:47:08;;;;;;;18.95;4.28;;;;;;;11.42;100.00;99509.91;4979913;28;20076;-79
2023/03/12 10:49:35;;;;;;;21.35;4.35;;;;;;;11.43;100.00;99529.56;4979978;28;20041;-80
2023/03/12 10:52:16;;;;;;;16.27;3.17;;;;;;;11.44;100.00;99512.41;4996302;28;20552;-81
2023/03/12 10:54:44;;;;;;;10.07;2.05;;;;;;;11.55;100.00;99514.44;4964026;28;20069;-80
2023/03/12 10:57:11;;;;;;;20.27;3.63;;;;;;;11.47;100.00;99473.47;4980343;28;20041;-80
2023/03/12 10:59:41;;;;;;;10.00;2.47;;;;;;;11.83;100.00;99514.13;4995855;28;20068;-80
2023/03/12 11:02:47;;;;;;;21.48;4.72;;;;;;;12.17;100.00;99509.41;4964835;28;20038;-80
2023/03/12 11:05:25;;;;;;;7.50;2.47;;;;;;;12.55;100.00;99492.34;4980347;28;20065;-80
2023/03/12 11:07:51;;;;;;;20.48;4.13;;;;;;;12.64;100.00;99480.22;4980106;28;20034;-80
2023/03/12 11:10:25;;;;;;;22.85;2.67;;;;;;;12.58;100.00;99470.31;4979780;28;20034;-80
2023/03/12 11:12:57;;;;;;;23.33;3.13;;;;;;;12.69;100.00;99480.38;4963178;28;20034;-79
2023/03/12 11:15:38;;;;;;;13.45;2.70;;;;;;;12.65;100.00;99460.31;4979305;28;20058;-79
2023/03/12 11:18:25;;;;;;;23.23;3.40;;;;;;;12.72;100.00;99463.75;4978703;28;20027;-79
2023/03/12 11:20:55;;;;;;;14.90;2.67;;;;;;;12.60;100.00;99457.47;4994491;28;20034;-81
2023/03/12 11:23:22;;;;;;;15.43;1.73;;;;;;;12.51;100.00;99453.38;4963378;28;20046;-80
2023/03/12 11:25:58;;;;;;;21.05;3.63;;;;;;;12.56;100.00;99442.75;4995149;28;20396;-79
2023/03/12 11:28:37;;;;;;;18.13;2.47;;;;;;;12.67;100.00;99435.81;4978755;28;20063;-77
2023/03/12 11:31:05;;;;;;;8.95;1.92;;;;;;;12.75;100.00;99444.47;4948478;28;20089;-79
2023/03/12 11:33:30;;;;;;;13.93;2.63;;;;;;;12.66;100.00;99429.59;4962862;28;20038;-78